This is the latest recevied weather packets stored in our database for station/object EA7RX-4. If no packets are shown the sender has not sent any weather packets the latest 10 day(s).
| Time | Temp. | Humidity | Pressure | Rain* | Wind** | Luminosity | Snow |
|---|---|---|---|---|---|---|---|
| 1787880603 | 13.89° C | 66% | 1018.5 hPa | 0 mm | - | 0 W/m² | - |
| 1787880003 | 14.44° C | 65% | 1017.9 hPa | 0 mm | - | 0 W/m² | - |
| 1787879403 | 14.44° C | 65% | 1018 hPa | 0 mm | - | 0 W/m² | - |
| 1787878803 | 14.44° C | 65% | 1018 hPa | 0 mm | - | 0 W/m² | - |
| 1787878203 | 14.44° C | 65% | 1018.2 hPa | 0 mm | - | 0 W/m² | - |
| 1787877603 | 14.44° C | 66% | 1017.9 hPa | 0 mm | - | 0 W/m² | - |
| 1787877003 | 14.44° C | 66% | 1018.2 hPa | 0 mm | - | 0 W/m² | - |
| 1787876403 | 14.44° C | 66% | 1017.9 hPa | 0 mm | - | 0 W/m² | - |
| 1787875803 | 13.89° C | 68% | 1017.9 hPa | 0 mm | - | 0 W/m² | - |
| 1787875203 | 14.44° C | 69% | 1017.8 hPa | 0 mm | - | 0 W/m² | - |
| 1787874603 | 14.44° C | 68% | 1018.2 hPa | 0 mm | - | 0 W/m² | - |
| 1787874003 | 14.44° C | 67% | 1018 hPa | 0 mm | - | 0 W/m² | - |
| 1787873403 | 15.56° C | 64% | 1018 hPa | 0 mm | - | 0 W/m² | - |
| 1787872803 | 15° C | 65% | 1018.1 hPa | 0 mm | - | 0 W/m² | - |
| 1787872203 | 15.56° C | 64% | 1018.2 hPa | 0 mm | - | 0 W/m² | - |
| 1787871603 | 15.56° C | 62% | 1018.1 hPa | 0 mm | - | 0 W/m² | - |
| 1787871003 | 16.11° C | 62% | 1018.2 hPa | 0 mm | - | 0 W/m² | - |
| 1787870403 | 16.11° C | 62% | 1018 hPa | 0 mm | - | 0 W/m² | - |
| 1787869803 | 16.11° C | 61% | 1017.9 hPa | 0 mm | - | 0 W/m² | - |
| 1787869203 | 16.67° C | 60% | 1017.8 hPa | 0 mm | - | 0 W/m² | - |
| 1787868603 | 16.67° C | 59% | 1017.7 hPa | 0 mm | - | 0 W/m² | - |
| 1787868003 | 16.67° C | 59% | 1017.6 hPa | 0 mm | - | 0 W/m² | - |
| 1787867403 | 16.67° C | 59% | 1017.7 hPa | 0 mm | - | 0 W/m² | - |
| 1787866803 | 16.67° C | 59% | 1017.5 hPa | 0 mm | - | 0 W/m² | - |
| 1787866203 | 16.67° C | 59% | 1017.1 hPa | 0 mm | - | 0 W/m² | - |
* Rain latest hour (hover to see other rain measurements)
** Current wind speed in m/s (hover to see current wind gust speed)